createdAt,value
2019-01-16T00:03:07.012Z,1.37
2019-01-16T00:07:39.398Z,0.90
2019-01-16T00:12:11.786Z,1.03
2019-01-16T00:16:31.794Z,0.97
2019-01-16T00:20:51.991Z,1.47
2019-01-16T00:25:12.093Z,1.20
2019-01-16T00:29:31.464Z,1.10
2019-01-16T00:34:03.440Z,1.47
2019-01-16T00:38:26.561Z,1.03
2019-01-16T00:42:56.044Z,1.40
2019-01-16T00:47:22.274Z,1.10
2019-01-16T00:51:43.186Z,1.40
2019-01-16T00:56:02.897Z,0.60
2019-01-16T01:00:28.622Z,0.87
2019-01-16T01:04:47.998Z,1.13
2019-01-16T01:09:07.246Z,0.90
2019-01-16T01:13:44.172Z,1.10
2019-01-16T01:18:07.248Z,0.80
2019-01-16T01:22:36.602Z,0.60
2019-01-16T01:26:59.626Z,0.87
2019-01-16T01:31:20.336Z,0.70
2019-01-16T01:35:58.562Z,0.70
2019-01-16T01:40:18.661Z,0.30
2019-01-16T01:44:41.579Z,1.20
2019-01-16T01:49:04.865Z,0.80
2019-01-16T01:53:23.878Z,0.90
2019-01-16T01:57:49.708Z,0.93
2019-01-16T02:01:57.832Z,0.30
2019-01-16T02:06:36.523Z,1.00
2019-01-16T02:11:11.548Z,0.50
2019-01-16T02:15:44.203Z,0.60
2019-01-16T02:20:16.312Z,0.80
2019-01-16T02:24:32.901Z,0.67
2019-01-16T02:29:02.009Z,0.30
2019-01-16T02:33:34.396Z,0.53
2019-01-16T02:37:44.053Z,0.67
2019-01-16T02:42:10.821Z,0.50
2019-01-16T02:46:35.924Z,0.70
2019-01-16T02:51:04.833Z,0.67
2019-01-16T02:55:23.725Z,0.20
2019-01-16T03:00:02.336Z,0.60
2019-01-16T03:04:31.652Z,0.50
2019-01-16T03:08:57.790Z,0.60
2019-01-16T03:13:07.141Z,0.50
2019-01-16T03:17:26.002Z,0.60
2019-01-16T03:21:48.773Z,0.50
2019-01-16T03:26:00.987Z,0.57
2019-01-16T03:30:19.555Z,0.50
2019-01-16T03:34:29.202Z,0.60
2019-01-16T03:38:58.244Z,0.57
2019-01-16T03:43:12.469Z,1.00
2019-01-16T03:47:32.588Z,0.50
2019-01-16T03:51:59.226Z,0.53
2019-01-16T03:56:19.215Z,0.43
2019-01-16T04:00:46.181Z,0.20
2019-01-16T04:04:55.831Z,0.63
2019-01-16T04:09:14.704Z,0.30
2019-01-16T04:13:35.932Z,0.50
2019-01-16T04:17:57.668Z,0.60
2019-01-16T04:22:19.875Z,0.60
2019-01-16T04:26:39.710Z,0.50
2019-01-16T04:31:17.319Z,0.40
2019-01-16T04:35:48.870Z,0.57
2019-01-16T04:40:07.512Z,0.83
2019-01-16T04:44:26.307Z,0.57
2019-01-16T04:48:44.940Z,0.73
2019-01-16T04:53:14.013Z,0.50
2019-01-16T04:57:32.383Z,0.40
2019-01-16T05:02:00.969Z,0.60
2019-01-16T05:06:11.766Z,0.30
2019-01-16T05:10:26.534Z,0.60
2019-01-16T05:14:37.903Z,0.40
2019-01-16T05:19:16.443Z,0.43
2019-01-16T05:23:51.484Z,0.50
2019-01-16T05:28:14.648Z,0.60
2019-01-16T05:32:46.644Z,0.60
2019-01-16T05:37:06.018Z,0.50
2019-01-16T05:41:34.936Z,0.37
2019-01-16T05:45:53.994Z,0.70
2019-01-16T05:50:09.395Z,1.00
2019-01-16T05:54:28.089Z,0.40
2019-01-16T05:58:56.853Z,0.53
2019-01-16T06:03:34.958Z,0.47
2019-01-16T06:07:57.994Z,0.50
2019-01-16T06:12:20.908Z,0.70
2019-01-16T06:16:39.678Z,0.60
2019-01-16T06:21:02.237Z,0.50
2019-01-16T06:25:30.843Z,0.60
2019-01-16T06:29:49.498Z,0.60
2019-01-16T06:34:18.473Z,0.50
2019-01-16T06:38:37.274Z,0.57
2019-01-16T06:43:03.278Z,0.83
2019-01-16T06:47:19.956Z,0.70
2019-01-16T06:51:31.847Z,0.60
2019-01-16T06:55:54.903Z,0.60
2019-01-16T07:00:13.359Z,0.60
2019-01-16T07:04:27.222Z,0.47
2019-01-16T07:08:53.158Z,0.60
2019-01-16T07:13:08.233Z,0.97
2019-01-16T07:17:37.555Z,0.60
2019-01-16T07:22:15.825Z,0.80
2019-01-16T07:26:35.492Z,0.77
2019-01-16T07:30:49.755Z,0.63
2019-01-16T07:35:18.708Z,0.90
2019-01-16T07:39:38.483Z,0.73
2019-01-16T07:43:53.448Z,1.10
2019-01-16T07:48:13.508Z,6.10
2019-01-16T07:52:39.107Z,0.80
2019-01-16T07:56:56.788Z,0.70
2019-01-16T08:01:25.784Z,0.90
2019-01-16T08:05:49.227Z,0.63
2019-01-16T08:10:17.363Z,0.93
2019-01-16T08:14:49.439Z,2.70
2019-01-16T08:19:07.883Z,1.67
2019-01-16T08:23:26.803Z,1.00
2019-01-16T08:27:46.488Z,1.03
2019-01-16T08:32:14.875Z,1.00
2019-01-16T08:36:56.143Z,0.93
2019-01-16T08:41:25.147Z,0.90
2019-01-16T08:45:45.148Z,0.90
2019-01-16T08:50:13.028Z,1.77
2019-01-16T08:54:42.008Z,1.20
2019-01-16T08:58:55.478Z,1.00
2019-01-16T09:03:18.138Z,0.80
2019-01-16T09:07:36.918Z,0.70
2019-01-16T09:11:51.402Z,0.60
2019-01-16T09:16:14.443Z,0.80
2019-01-16T09:20:28.497Z,1.10
2019-01-16T09:24:47.673Z,0.30
2019-01-16T09:29:19.218Z,0.50
2019-01-16T09:33:32.027Z,0.83
2019-01-16T09:38:01.608Z,0.87
2019-01-16T09:42:14.528Z,0.77
2019-01-16T09:46:51.844Z,0.80
2019-01-16T09:51:14.974Z,0.60
2019-01-16T09:55:29.709Z,0.47
2019-01-16T09:59:55.354Z,0.80
2019-01-16T10:04:13.919Z,0.90
2019-01-16T10:08:32.697Z,0.70
2019-01-16T10:12:58.233Z,0.70
2019-01-16T10:17:24.782Z,0.90
2019-01-16T10:21:47.690Z,0.77
2019-01-16T10:26:16.579Z,0.80
2019-01-16T10:30:47.718Z,0.70
2019-01-16T10:35:19.828Z,0.90
2019-01-16T10:39:38.616Z,0.90
2019-01-16T10:43:56.487Z,0.80
2019-01-16T10:48:19.020Z,0.77
2019-01-16T10:52:41.263Z,1.10
2019-01-16T10:57:16.348Z,1.00
2019-01-16T11:01:51.652Z,0.30
2019-01-16T11:06:14.693Z,0.80
2019-01-16T11:10:33.267Z,0.80
2019-01-16T11:15:01.578Z,0.47
2019-01-16T11:19:21.368Z,0.70
2019-01-16T11:23:51.499Z,0.50
2019-01-16T11:28:18.524Z,1.07
2019-01-16T11:32:48.183Z,0.90
2019-01-16T11:37:08.603Z,0.60
2019-01-16T11:41:20.218Z,0.67
2019-01-16T11:45:38.625Z,0.90
2019-01-16T11:49:57.312Z,0.60
2019-01-16T11:54:29.324Z,0.40
2019-01-16T11:58:44.358Z,0.80
2019-01-16T12:03:01.789Z,0.70
2019-01-16T12:07:21.518Z,0.80
2019-01-16T12:11:34.532Z,1.03
2019-01-16T12:16:03.977Z,1.00
2019-01-16T12:20:30.568Z,0.63
2019-01-16T12:24:49.514Z,1.20
2019-01-16T12:29:08.303Z,0.70
2019-01-16T12:33:31.315Z,0.73
2019-01-16T12:38:03.617Z,0.73
2019-01-16T12:42:31.408Z,1.03
2019-01-16T12:55:30.957Z,0.87
2019-01-16T12:59:50.328Z,0.87
2019-01-16T13:04:13.640Z,0.93
2019-01-16T13:08:36.513Z,2.17
2019-01-16T13:12:58.127Z,1.80
2019-01-16T13:17:36.508Z,1.80
2019-01-16T13:21:56.369Z,1.60
2019-01-16T13:26:22.062Z,1.60
2019-01-16T13:40:00.454Z,1.33
2019-01-16T13:44:20.449Z,1.10
2019-01-16T13:48:53.015Z,0.90
2019-01-16T14:00:49.136Z,0.97
2019-01-16T14:05:00.624Z,1.30
2019-01-16T14:09:33.658Z,1.00
2019-01-16T14:14:00.489Z,1.00
2019-01-16T14:18:25.202Z,0.90
2019-01-16T14:22:57.258Z,1.90
2019-01-16T14:27:23.319Z,1.03
2019-01-16T14:32:01.428Z,1.10
2019-01-16T14:36:36.391Z,1.30
2019-01-16T14:41:08.369Z,1.20
2019-01-16T14:45:28.057Z,1.40
2019-01-16T14:49:56.751Z,1.37
2019-01-16T14:54:22.610Z,1.63
2019-01-16T14:58:45.457Z,1.07
2019-01-16T15:03:05.429Z,1.47
2019-01-16T15:07:26.799Z,1.37
2019-01-16T15:11:43.767Z,1.67
2019-01-16T15:16:03.754Z,1.17
2019-01-16T15:20:23.407Z,12.50
2019-01-16T15:24:31.311Z,3.77
2019-01-16T15:29:03.179Z,4.97
2019-01-16T15:33:25.845Z,5.47
2019-01-16T15:37:46.348Z,3.27
2019-01-16T15:42:01.019Z,3.50
2019-01-16T15:46:21.172Z,2.83
2019-01-16T15:50:59.447Z,2.90
2019-01-16T15:55:25.537Z,2.57
2019-01-16T15:59:48.041Z,2.70
2019-01-16T16:04:13.910Z,2.87
2019-01-16T16:08:33.087Z,3.47
2019-01-16T16:13:05.013Z,3.10
2019-01-16T16:17:19.096Z,3.33
2019-01-16T16:21:48.203Z,3.17
2019-01-16T16:26:18.317Z,5.10
2019-01-16T16:30:33.701Z,4.37
2019-01-16T16:35:08.647Z,3.70
2019-01-16T16:39:27.742Z,3.93
2019-01-16T16:43:36.106Z,3.30
2019-01-16T16:47:54.642Z,4.10
2019-01-16T16:52:07.266Z,4.90
2019-01-16T16:56:36.583Z,4.43
2019-01-16T17:01:02.399Z,4.10
2019-01-16T17:05:36.727Z,3.80
2019-01-16T17:09:51.677Z,4.30
2019-01-16T17:14:11.211Z,3.67
2019-01-16T17:18:39.897Z,3.73
2019-01-16T17:23:11.831Z,3.57
2019-01-16T17:27:31.396Z,3.97
2019-01-16T17:31:44.412Z,3.77
2019-01-16T17:36:03.066Z,4.00
2019-01-16T17:40:11.096Z,3.60
2019-01-16T17:44:29.544Z,3.77
2019-01-16T17:48:38.797Z,3.60
2019-01-16T17:53:04.277Z,3.83
2019-01-16T17:57:29.646Z,3.43
2019-01-16T18:01:41.582Z,4.10
2019-01-16T18:06:10.498Z,3.60
2019-01-16T18:10:20.549Z,4.00
2019-01-16T18:14:40.391Z,4.67
2019-01-16T18:19:10.486Z,3.90
2019-01-16T18:23:36.918Z,5.23
2019-01-16T18:28:05.779Z,4.47
2019-01-16T18:32:28.961Z,2.83
2019-01-16T18:36:47.729Z,2.23
2019-01-16T18:41:10.798Z,1.77
2019-01-16T18:45:29.782Z,1.77
2019-01-16T18:49:55.740Z,2.00
2019-01-16T18:54:24.793Z,1.63
2019-01-16T18:58:36.202Z,2.47
2019-01-16T19:02:58.965Z,2.00
2019-01-16T19:07:18.819Z,2.07
2019-01-16T19:11:38.548Z,2.37
2019-01-16T19:15:53.663Z,3.07
2019-01-16T19:20:19.401Z,0.40
2019-01-16T19:24:45.164Z,2.27
2019-01-16T19:29:03.797Z,2.50
2019-01-16T19:33:17.942Z,2.60
2019-01-16T19:37:50.546Z,2.37
2019-01-16T19:42:09.708Z,1.97
2019-01-16T19:46:28.293Z,1.70
2019-01-16T19:50:44.442Z,1.03
2019-01-16T19:55:19.634Z,1.77
2019-01-16T19:59:57.654Z,1.80
2019-01-16T20:04:17.326Z,2.30
2019-01-16T20:08:35.712Z,1.27
2019-01-16T20:12:55.902Z,1.70
2019-01-16T20:17:06.248Z,1.97
2019-01-16T20:21:30.642Z,0.97
2019-01-16T20:25:57.038Z,1.73
2019-01-16T20:30:07.371Z,1.10
2019-01-16T20:34:39.580Z,1.73
2019-01-16T20:38:59.386Z,2.03
2019-01-16T20:43:17.496Z,1.60
2019-01-16T20:47:46.334Z,1.43
2019-01-16T20:52:06.100Z,2.37
2019-01-16T20:56:25.745Z,1.70
2019-01-16T21:00:44.054Z,2.40
2019-01-16T21:05:02.453Z,2.37
2019-01-16T21:09:37.048Z,2.23
2019-01-16T21:14:02.483Z,2.63
2019-01-16T21:28:30.852Z,1.60
2019-01-16T21:33:00.902Z,2.10
2019-01-16T21:37:27.897Z,2.10
2019-01-16T21:42:03.407Z,2.13
2019-01-16T21:46:22.041Z,2.03
2019-01-16T21:50:41.966Z,1.60
2019-01-16T22:07:04.233Z,2.60
2019-01-16T22:11:22.540Z,2.93
2019-01-16T22:15:51.631Z,1.67
2019-01-16T22:20:02.049Z,1.47
2019-01-16T22:36:03.560Z,2.73
2019-01-16T22:40:26.331Z,1.63
2019-01-16T22:44:50.416Z,2.03
2019-01-16T22:49:16.224Z,1.60
2019-01-16T22:53:52.504Z,1.90
2019-01-16T22:58:12.887Z,1.90
2019-01-16T23:02:41.798Z,1.60
2019-01-16T23:06:49.343Z,1.50
2019-01-16T23:11:01.782Z,0.90
2019-01-16T23:15:15.727Z,1.47
2019-01-16T23:19:34.997Z,1.60
2019-01-16T23:23:51.719Z,1.67
2019-01-16T23:28:11.830Z,1.33
2019-01-16T23:32:44.110Z,1.27
2019-01-16T23:37:03.502Z,1.23
2019-01-16T23:41:26.425Z,1.03
2019-01-16T23:45:45.347Z,1.30
2019-01-16T23:50:11.674Z,1.03
2019-01-16T23:54:37.407Z,1.37
2019-01-16T23:59:15.729Z,1.00
